Time;durP1;ratioP1;P1;durP2;ratioP2;P2;SDS_P1;SDS_P2;PMS_P1;PMS_P2;Temp;Humidity;BMP_temperature;BMP_pressure;BME280_temperature;BME280_humidity;BME280_pressure;Samples;Min_cycle;Max_cycle;Signal;HPM_P1;HPM_P2
2023/08/24 00:02:00;;;;;;;12.25;8.02;;;18.60;99.90;;;;;;5063110;28;20534;-65
2023/08/24 00:04:27;;;;;;;14.50;8.27;;;18.60;99.90;;;;;;5034236;28;20246;-66
2023/08/24 00:06:54;;;;;;;10.65;8.23;;;18.60;99.90;;;;;;5047923;28;20709;-65
2023/08/24 00:09:21;;;;;;;15.48;8.40;;;18.50;99.90;;;;;;5037340;28;20248;-65
2023/08/24 00:11:48;;;;;;;13.55;10.07;;;18.30;99.90;;;;;;5052098;28;20199;-64
2023/08/24 00:14:15;;;;;;;11.65;9.70;;;18.20;99.90;;;;;;5052033;28;20244;-64
2023/08/24 00:16:42;;;;;;;12.30;8.93;;;18.20;99.90;;;;;;5046887;28;20202;-64
2023/08/24 00:19:09;;;;;;;16.63;9.63;;;18.20;99.90;;;;;;5048030;28;20309;-65
2023/08/24 00:21:36;;;;;;;10.57;9.23;;;17.90;99.90;;;;;;5038303;28;20195;-65
2023/08/24 00:24:03;;;;;;;11.90;8.90;;;17.80;99.90;;;;;;5030081;28;20265;-60
2023/08/24 00:26:30;;;;;;;10.27;9.25;;;17.90;99.90;;;;;;5005382;28;20210;-63
2023/08/24 00:28:57;;;;;;;10.25;9.25;;;18.00;99.90;;;;;;5033016;28;20203;-62
2023/08/24 00:31:24;;;;;;;11.20;9.32;;;18.00;99.90;;;;;;5042504;28;20186;-62
2023/08/24 00:33:51;;;;;;;16.30;9.68;;;17.80;99.90;;;;;;5032981;28;20217;-62
2023/08/24 00:36:18;;;;;;;10.30;9.18;;;17.90;99.90;;;;;;5046240;28;20296;-61
2023/08/24 00:38:50;;;;;;;12.52;9.55;;;17.60;99.90;;;;;;5029345;28;20884;-60
2023/08/24 00:41:17;;;;;;;12.85;9.63;;;17.80;99.90;;;;;;5047425;28;20198;-60
2023/08/24 00:43:44;;;;;;;13.20;10.52;;;17.90;99.90;;;;;;5054507;28;20223;-61
2023/08/24 00:46:13;;;;;;;12.77;9.48;;;18.00;99.90;;;;;;5030518;28;20293;-62
2023/08/24 00:48:40;;;;;;;13.95;9.27;;;18.10;99.90;;;;;;5047628;28;20203;-61
2023/08/24 00:51:07;;;;;;;11.80;9.30;;;18.20;99.90;;;;;;5032702;28;20195;-62
2023/08/24 00:53:36;;;;;;;12.13;9.05;;;18.30;99.90;;;;;;5045256;28;20371;-62
2023/08/24 00:56:05;;;;;;;12.90;9.60;;;18.20;99.90;;;;;;5029876;28;20701;-69
2023/08/24 00:58:33;;;;;;;12.02;9.20;;;18.30;99.90;;;;;;5025817;28;20276;-61
2023/08/24 01:01:01;;;;;;;13.85;8.80;;;18.30;99.90;;;;;;5016763;28;21152;-71
2023/08/24 01:06:10;;;;;;;11.98;9.05;;;18.10;99.90;;;;;;5025449;28;20218;-60
2023/08/24 01:08:37;;;;;;;10.88;8.75;;;18.10;99.90;;;;;;5017456;28;20666;-60
2023/08/24 01:11:39;;;;;;;11.38;9.57;;;18.10;99.90;;;;;;5034914;28;20270;-60
2023/08/24 01:14:45;;;;;;;16.95;10.48;;;18.00;99.90;;;;;;4984731;28;20565;-61
2023/08/24 01:17:15;;;;;;;14.35;9.88;;;17.40;99.90;;;;;;4960677;28;20234;-62
2023/08/24 01:19:43;;;;;;;13.88;11.85;;;17.00;99.90;;;;;;5000336;28;20289;-63
2023/08/24 01:22:35;;;;;;;16.05;11.48;;;16.90;99.90;;;;;;5050140;28;20266;-62
2023/08/24 01:25:38;;;;;;;16.70;12.68;;;16.80;99.90;;;;;;5022697;28;20393;-61
2023/08/24 01:28:06;;;;;;;17.55;12.75;;;16.70;99.90;;;;;;5030072;28;20221;-61
2023/08/24 01:30:35;;;;;;;19.58;14.32;;;16.80;99.90;;;;;;5022983;28;20207;-62
2023/08/24 01:33:04;;;;;;;17.10;14.40;;;16.90;99.90;;;;;;5011690;28;20235;-63
2023/08/24 01:35:32;;;;;;;16.58;12.95;;;16.90;99.90;;;;;;5012452;28;20206;-63
2023/08/24 01:38:03;;;;;;;16.92;12.13;;;17.10;99.90;;;;;;5031283;28;20200;-62
2023/08/24 01:40:41;;;;;;;16.00;12.82;;;17.10;99.90;;;;;;5013016;28;20204;-63
2023/08/24 01:43:11;;;;;;;17.90;13.48;;;17.30;99.90;;;;;;4997251;28;20212;-62
2023/08/24 01:45:41;;;;;;;15.68;13.38;;;17.30;99.90;;;;;;5013596;28;21090;-65
2023/08/24 01:48:10;;;;;;;20.15;12.77;;;17.30;99.90;;;;;;5028975;28;20371;-64
2023/08/24 01:50:38;;;;;;;22.23;13.88;;;17.20;99.90;;;;;;4996219;28;20277;-64
2023/08/24 01:53:05;;;;;;;15.18;12.70;;;17.20;99.90;;;;;;5028639;28;20261;-64
2023/08/24 01:55:33;;;;;;;19.27;14.30;;;17.00;99.90;;;;;;5009874;28;20239;-61
2023/08/24 01:58:00;;;;;;;16.67;14.00;;;17.10;99.90;;;;;;5007444;28;20200;-59
2023/08/24 02:04:27;;;;;;;15.43;12.75;;;17.30;99.90;;;;;;5021937;28;20226;-62
2023/08/24 02:06:54;;;;;;;16.90;12.55;;;17.40;99.90;;;;;;5032729;28;20196;-61
2023/08/24 02:09:21;;;;;;;17.65;12.85;;;17.40;99.90;;;;;;5022892;28;20195;-62
2023/08/24 02:11:51;;;;;;;17.02;12.52;;;17.50;99.90;;;;;;5033370;28;20207;-63
2023/08/24 02:14:18;;;;;;;17.25;13.23;;;17.40;99.90;;;;;;5032415;28;20265;-62
2023/08/24 02:16:45;;;;;;;15.70;13.30;;;17.20;99.90;;;;;;5044516;28;20260;-62
2023/08/24 02:19:12;;;;;;;15.85;13.60;;;17.10;99.90;;;;;;5043117;28;20196;-67
2023/08/24 02:21:39;;;;;;;18.38;12.88;;;17.10;99.90;;;;;;5027900;28;20197;-62
2023/08/24 02:24:06;;;;;;;18.93;14.50;;;17.10;99.90;;;;;;5042897;28;20247;-62
2023/08/24 02:26:33;;;;;;;18.95;14.55;;;17.20;99.90;;;;;;5043389;28;20676;-62
2023/08/24 02:29:00;;;;;;;17.02;14.13;;;17.30;99.90;;;;;;5046537;28;20195;-63
2023/08/24 02:31:28;;;;;;;15.77;13.80;;;17.40;99.90;;;;;;5032018;28;20281;-62
2023/08/24 02:33:55;;;;;;;16.50;13.10;;;17.40;99.90;;;;;;5046507;28;20286;-62
2023/08/24 02:36:22;;;;;;;17.20;13.57;;;17.40;99.90;;;;;;5027192;28;20241;-63
2023/08/24 02:38:50;;;;;;;16.35;13.43;;;17.30;99.90;;;;;;5026311;28;20188;-63
2023/08/24 02:41:17;;;;;;;14.93;12.27;;;17.40;99.90;;;;;;5040338;28;20829;-62
2023/08/24 02:43:44;;;;;;;23.88;14.70;;;17.00;99.90;;;;;;5043693;28;21039;-61
2023/08/24 02:46:13;;;;;;;24.85;15.02;;;16.80;99.90;;;;;;5027099;28;20221;-61
2023/08/24 02:48:40;;;;;;;21.60;15.87;;;16.60;99.90;;;;;;5028854;28;20735;-62
2023/08/24 02:51:08;;;;;;;15.60;13.77;;;16.70;99.90;;;;;;5008507;28;20660;-62
2023/08/24 02:53:36;;;;;;;20.10;14.68;;;16.80;99.90;;;;;;5009907;28;20191;-61
2023/08/24 02:56:03;;;;;;;17.27;15.38;;;17.10;99.90;;;;;;5041519;28;20824;-62
2023/08/24 02:58:31;;;;;;;16.33;14.00;;;17.20;99.90;;;;;;5041050;28;21197;-63
2023/08/24 03:00:58;;;;;;;15.30;13.02;;;17.30;99.90;;;;;;5025997;28;20246;-62
2023/08/24 03:03:25;;;;;;;17.50;12.40;;;17.40;99.90;;;;;;5024155;28;20678;-60
2023/08/24 03:06:00;;;;;;;18.75;13.55;;;17.50;99.90;;;;;;5010730;28;20760;-62
2023/08/24 03:08:29;;;;;;;16.60;14.13;;;17.50;99.90;;;;;;5040077;28;20214;-62
2023/08/24 03:10:57;;;;;;;17.60;14.65;;;17.30;99.90;;;;;;5010427;28;20666;-62
2023/08/24 03:13:24;;;;;;;17.90;14.90;;;17.20;99.90;;;;;;5020590;28;20564;-62
2023/08/24 03:15:53;;;;;;;18.73;13.45;;;17.20;99.90;;;;;;5023675;28;20225;-61
2023/08/24 03:18:22;;;;;;;16.65;12.63;;;17.30;99.90;;;;;;5021298;28;20551;-60
2023/08/24 03:20:49;;;;;;;17.65;13.43;;;17.40;99.90;;;;;;5000755;28;20647;-60
2023/08/24 03:23:16;;;;;;;17.65;12.45;;;17.40;99.90;;;;;;5017324;28;20742;-64
2023/08/24 03:25:44;;;;;;;16.50;13.05;;;17.40;99.90;;;;;;5026687;28;20245;-64
2023/08/24 03:28:11;;;;;;;14.02;12.13;;;17.40;99.90;;;;;;5012936;28;20254;-63
2023/08/24 03:30:46;;;;;;;15.15;12.93;;;17.50;99.90;;;;;;5008544;28;20196;-63
2023/08/24 03:33:13;;;;;;;14.23;12.15;;;17.40;99.90;;;;;;5011762;28;20860;-64
2023/08/24 03:35:40;;;;;;;16.63;12.85;;;17.40;99.90;;;;;;5029038;28;20296;-62
2023/08/24 03:38:08;;;;;;;16.02;12.27;;;17.60;99.90;;;;;;5029712;28;20226;-61
2023/08/24 03:40:35;;;;;;;16.05;13.18;;;17.50;99.90;;;;;;5025699;28;20254;-62
2023/08/24 03:43:03;;;;;;;15.05;12.85;;;17.50;99.90;;;;;;5012260;28;21517;-63
2023/08/24 03:45:30;;;;;;;20.15;13.80;;;17.50;99.90;;;;;;5006307;28;20215;-61
2023/08/24 03:47:57;;;;;;;18.80;13.18;;;17.60;99.90;;;;;;5012211;28;20540;-62
2023/08/24 03:50:26;;;;;;;14.15;12.65;;;17.70;99.90;;;;;;5012083;28;20293;-62
2023/08/24 03:52:54;;;;;;;23.27;14.02;;;17.70;99.90;;;;;;5006482;28;20616;-63
2023/08/24 03:55:21;;;;;;;14.13;12.27;;;17.70;99.90;;;;;;4993525;28;20668;-61
2023/08/24 03:57:48;;;;;;;17.55;13.30;;;17.80;99.90;;;;;;5011527;28;20318;-63
2023/08/24 04:00:16;;;;;;;16.05;11.98;;;17.80;99.90;;;;;;5023304;28;20698;-63
2023/08/24 04:02:45;;;;;;;15.27;13.05;;;17.70;99.90;;;;;;5011970;28;20210;-62
2023/08/24 04:05:20;;;;;;;16.95;13.93;;;17.40;99.90;;;;;;5000701;28;20231;-61
2023/08/24 04:07:48;;;;;;;15.02;12.65;;;17.30;99.90;;;;;;5023280;28;20197;-63
2023/08/24 04:10:15;;;;;;;16.67;12.55;;;17.50;99.90;;;;;;5039757;28;20191;-64
2023/08/24 04:12:42;;;;;;;15.38;13.25;;;17.60;99.90;;;;;;5011483;28;20188;-64
2023/08/24 04:15:09;;;;;;;15.20;12.25;;;17.70;99.90;;;;;;5027849;28;20223;-64
2023/08/24 04:17:36;;;;;;;14.93;13.20;;;17.80;99.90;;;;;;5027239;28;20199;-69
2023/08/24 04:20:06;;;;;;;14.57;12.68;;;18.00;99.90;;;;;;5044085;28;20274;-64
2023/08/24 04:22:33;;;;;;;20.00;13.98;;;18.00;99.90;;;;;;5008674;28;20192;-63
2023/08/24 04:25:00;;;;;;;15.82;13.25;;;18.00;99.90;;;;;;5018464;28;20215;-63
2023/08/24 04:27:27;;;;;;;16.50;13.40;;;18.10;99.90;;;;;;5041109;28;20188;-63
2023/08/24 04:29:59;;;;;;;18.00;13.00;;;18.10;99.90;;;;;;5029640;28;20210;-65
2023/08/24 04:32:27;;;;;;;16.05;12.63;;;18.20;99.90;;;;;;5030447;28;20195;-63
2023/08/24 04:34:54;;;;;;;15.00;12.00;;;18.10;99.90;;;;;;5042789;28;20222;-63
2023/08/24 04:37:21;;;;;;;18.85;12.95;;;18.00;99.90;;;;;;5060306;28;20555;-64
2023/08/24 04:39:48;;;;;;;16.25;13.18;;;18.10;99.90;;;;;;5047493;28;20211;-64
2023/08/24 04:42:15;;;;;;;17.00;13.57;;;18.00;99.90;;;;;;5058112;28;20203;-64
2023/08/24 04:44:42;;;;;;;16.90;14.10;;;17.90;99.90;;;;;;5034698;28;20207;-64
2023/08/24 04:47:09;;;;;;;15.05;13.30;;;17.70;99.90;;;;;;5053398;28;20195;-64
2023/08/24 04:49:36;;;;;;;18.92;15.30;;;17.60;99.90;;;;;;5037771;28;20432;-64
2023/08/24 04:52:04;;;;;;;20.08;15.50;;;17.60;99.90;;;;;;5036238;28;20546;-64
2023/08/24 04:54:32;;;;;;;19.83;14.13;;;17.50;99.90;;;;;;5037324;28;20207;-64
2023/08/24 04:56:59;;;;;;;17.08;14.35;;;17.50;99.90;;;;;;5051541;28;20249;-64
2023/08/24 04:59:26;;;;;;;16.45;13.63;;;17.60;99.90;;;;;;5031582;28;20717;-64
2023/08/24 05:01:53;;;;;;;15.43;13.55;;;17.70;99.90;;;;;;5031006;28;20261;-64
2023/08/24 05:04:20;;;;;;;17.80;14.82;;;17.90;99.90;;;;;;5047582;28;22218;-64
2023/08/24 05:06:47;;;;;;;16.08;13.75;;;18.00;99.90;;;;;;5033967;28;20282;-64
2023/08/24 05:09:14;;;;;;;15.32;13.63;;;18.10;99.90;;;;;;5033760;28;20195;-64
2023/08/24 05:11:41;;;;;;;18.38;14.07;;;18.20;99.90;;;;;;5042578;28;20659;-64
2023/08/24 05:14:08;;;;;;;15.15;12.95;;;18.20;99.90;;;;;;5028444;28;20208;-64
2023/08/24 05:16:35;;;;;;;16.17;13.15;;;18.20;99.90;;;;;;5028010;28;20187;-64
2023/08/24 05:19:03;;;;;;;14.80;13.20;;;18.20;99.90;;;;;;5041541;28;20700;-64
2023/08/24 05:21:30;;;;;;;16.42;12.82;;;18.20;99.90;;;;;;5041220;28;20533;-64
2023/08/24 05:23:57;;;;;;;15.27;12.73;;;18.30;99.90;;;;;;5012278;28;20205;-64
2023/08/24 05:26:24;;;;;;;19.10;13.07;;;18.30;99.90;;;;;;5027881;28;20226;-64
2023/08/24 05:28:52;;;;;;;13.88;12.45;;;18.10;99.90;;;;;;5052664;28;20188;-64
2023/08/24 05:31:20;;;;;;;16.48;13.10;;;17.70;99.90;;;;;;5041436;28;20195;-64
2023/08/24 05:33:48;;;;;;;17.10;14.13;;;17.70;99.90;;;;;;5041539;28;20218;-64
2023/08/24 05:36:15;;;;;;;17.77;13.43;;;17.60;99.90;;;;;;5030121;28;20196;-64
2023/08/24 05:38:46;;;;;;;17.90;13.25;;;17.20;99.90;;;;;;5046525;28;20209;-64
2023/08/24 05:41:31;;;;;;;17.33;13.75;;;17.10;99.90;;;;;;5041539;28;20671;-64
2023/08/24 05:43:58;;;;;;;14.35;12.57;;;17.30;99.90;;;;;;5045619;28;20664;-64
2023/08/24 05:46:25;;;;;;;14.82;12.55;;;17.50;99.90;;;;;;5021537;28;20219;-64
2023/08/24 05:48:52;;;;;;;17.08;12.75;;;17.60;99.90;;;;;;5040054;28;20601;-64
2023/08/24 05:51:19;;;;;;;13.75;11.45;;;17.40;99.90;;;;;;5011854;28;20192;-63
2023/08/24 05:53:46;;;;;;;17.13;11.93;;;17.20;99.90;;;;;;5029192;28;20318;-63
2023/08/24 05:56:13;;;;;;;15.32;11.27;;;17.10;99.90;;;;;;5045695;28;20195;-66
2023/08/24 05:58:40;;;;;;;13.32;11.93;;;17.40;99.90;;;;;;5027444;28;20253;-63
2023/08/24 06:01:07;;;;;;;13.05;11.43;;;17.50;99.90;;;;;;5026206;28;20683;-62
2023/08/24 06:03:34;;;;;;;11.70;10.50;;;17.60;99.90;;;;;;5026270;28;20698;-63
2023/08/24 06:06:03;;;;;;;11.35;9.82;;;17.60;99.90;;;;;;5044072;28;20727;-66
2023/08/24 06:08:30;;;;;;;12.13;9.82;;;17.60;99.90;;;;;;5044458;28;20199;-63
2023/08/24 06:10:58;;;;;;;12.88;10.00;;;17.60;99.90;;;;;;5028199;28;20597;-63
2023/08/24 06:13:25;;;;;;;13.10;9.18;;;17.60;99.90;;;;;;5046573;28;20187;-63
2023/08/24 06:15:54;;;;;;;10.10;8.77;;;17.80;99.90;;;;;;5012556;28;20214;-62
2023/08/24 06:18:21;;;;;;;14.30;8.65;;;17.90;99.90;;;;;;5026481;28;20191;-63
2023/08/24 06:20:51;;;;;;;9.45;8.38;;;18.30;99.90;;;;;;5044075;28;20192;-63
2023/08/24 06:23:18;;;;;;;8.73;7.72;;;18.60;99.90;;;;;;5027038;28;20207;-62
2023/08/24 06:25:45;;;;;;;12.80;8.82;;;18.80;99.90;;;;;;5046147;28;20667;-63
2023/08/24 06:28:13;;;;;;;12.25;8.60;;;18.80;99.90;;;;;;5029699;28;20188;-61
2023/08/24 06:30:42;;;;;;;10.43;9.27;;;18.80;99.90;;;;;;5042847;28;20196;-61
2023/08/24 06:33:10;;;;;;;9.88;8.20;;;18.70;99.90;;;;;;5028235;28;20192;-61
2023/08/24 06:35:38;;;;;;;12.38;9.65;;;18.60;99.90;;;;;;5042530;28;20206;-61
2023/08/24 06:38:05;;;;;;;12.80;9.77;;;18.80;99.90;;;;;;5042192;28;20196;-63
2023/08/24 06:40:32;;;;;;;10.00;8.60;;;18.90;99.90;;;;;;5042774;28;20230;-63
2023/08/24 06:42:59;;;;;;;10.20;8.95;;;19.10;99.90;;;;;;5047630;28;20286;-63
2023/08/24 06:45:26;;;;;;;10.70;9.00;;;19.40;99.90;;;;;;5025524;28;20590;-63
2023/08/24 06:47:54;;;;;;;9.70;8.70;;;19.80;99.90;;;;;;5028478;28;20678;-63
2023/08/24 06:50:21;;;;;;;14.40;9.75;;;20.30;99.90;;;;;;5027993;28;20195;-63
2023/08/24 06:52:48;;;;;;;9.63;8.02;;;22.40;99.90;;;;;;5042321;28;20198;-62
2023/08/24 06:55:16;;;;;;;9.38;8.13;;;23.50;99.90;;;;;;5043249;28;20294;-62
2023/08/24 06:57:47;;;;;;;8.75;7.95;;;25.80;99.90;;;;;;5040980;28;20195;-62
2023/08/24 07:00:15;;;;;;;15.02;8.88;;;26.40;99.90;;;;;;5026675;28;20716;-61
2023/08/24 07:02:42;;;;;;;8.30;7.22;;;27.40;99.90;;;;;;5027580;28;21018;-62
2023/08/24 07:05:09;;;;;;;12.50;7.95;;;28.80;99.90;;;;;;5043020;28;20319;-62
2023/08/24 07:07:36;;;;;;;8.90;7.93;;;29.00;99.90;;;;;;5023088;28;20602;-64
2023/08/24 07:10:04;;;;;;;8.40;7.53;;;30.40;99.90;;;;;;5023426;28;20261;-61
2023/08/24 07:12:33;;;;;;;11.95;7.15;;;31.60;99.90;;;;;;5028372;28;20254;-63
2023/08/24 07:15:00;;;;;;;8.15;7.38;;;31.00;99.90;;;;;;5024421;28;20191;-64
2023/08/24 07:17:27;;;;;;;8.35;7.30;;;31.30;99.90;;;;;;5020906;28;20192;-62
2023/08/24 07:19:54;;;;;;;7.75;6.95;;;32.30;99.90;;;;;;5026867;28;20514;-62
2023/08/24 07:22:21;;;;;;;10.27;7.32;;;32.10;99.90;;;;;;5040341;28;20186;-62
2023/08/24 07:24:52;;;;;;;8.98;7.30;;;32.10;99.90;;;;;;5044201;28;20655;-63
2023/08/24 07:27:19;;;;;;;7.60;6.90;;;31.90;99.90;;;;;;5023417;28;20266;-62
2023/08/24 07:29:46;;;;;;;8.10;7.22;;;32.90;99.90;;;;;;5040556;28;20242;-62
2023/08/24 07:32:13;;;;;;;6.95;6.22;;;33.90;99.90;;;;;;5024977;28;20196;-62
2023/08/24 07:34:40;;;;;;;7.63;6.22;;;34.50;99.90;;;;;;5036290;28;20196;-63
2023/08/24 07:37:07;;;;;;;7.18;6.55;;;36.00;99.90;;;;;;5022741;28;20209;-62
2023/08/24 07:39:34;;;;;;;8.70;5.72;;;35.80;99.90;;;;;;5025964;28;20220;-62
2023/08/24 07:42:01;;;;;;;7.50;6.07;;;36.30;99.90;;;;;;5022915;28;20202;-62
2023/08/24 07:44:28;;;;;;;8.32;6.40;;;37.00;99.90;;;;;;5025438;28;20285;-63
2023/08/24 07:46:55;;;;;;;7.00;6.30;;;38.00;99.90;;;;;;5038357;28;20203;-62
2023/08/24 07:49:22;;;;;;;8.35;5.75;;;38.80;99.90;;;;;;5042884;28;20249;-62
2023/08/24 07:51:49;;;;;;;8.65;6.75;;;40.60;99.90;;;;;;5042168;28;20187;-63
2023/08/24 07:54:16;;;;;;;7.40;6.78;;;38.50;99.90;;;;;;5038386;28;20277;-62
2023/08/24 07:56:43;;;;;;;7.93;6.97;;;39.60;99.90;;;;;;5008692;28;20218;-63
2023/08/24 07:59:10;;;;;;;8.77;7.10;;;39.80;99.90;;;;;;5025726;28;20285;-62
2023/08/24 08:01:37;;;;;;;10.45;6.75;;;38.00;99.90;;;;;;5018024;28;20222;-63
2023/08/24 08:04:04;;;;;;;7.80;6.97;;;39.00;99.90;;;;;;5024756;28;20219;-65
2023/08/24 08:06:31;;;;;;;7.53;6.82;;;38.70;99.90;;;;;;5022905;28;20470;-65
2023/08/24 08:08:59;;;;;;;7.28;6.45;;;37.10;99.90;;;;;;5020219;28;20256;-63
2023/08/24 08:11:26;;;;;;;7.90;6.28;;;39.00;99.90;;;;;;5022910;28;20722;-65
2023/08/24 08:13:52;;;;;;;9.77;6.53;;;39.50;99.90;;;;;;5023833;28;20195;-65
2023/08/24 08:16:19;;;;;;;6.85;6.15;;;38.80;99.90;;;;;;5012263;28;20289;-65
2023/08/24 08:18:46;;;;;;;6.70;5.97;;;38.90;99.90;;;;;;5026381;28;20195;-63
2023/08/24 08:21:20;;;;;;;6.35;5.78;;;42.60;99.90;;;;;;5042071;28;20258;-63
2023/08/24 08:23:49;;;;;;;7.30;6.03;;;43.60;99.90;;;;;;5042577;28;20328;-62
2023/08/24 08:26:16;;;;;;;7.45;6.07;;;42.90;99.90;;;;;;5022993;28;20218;-63
2023/08/24 08:28:44;;;;;;;6.88;5.78;;;40.70;99.90;;;;;;5051042;28;20914;-62
2023/08/24 08:31:11;;;;;;;8.18;5.95;;;40.10;99.90;;;;;;5048005;28;20203;-63
2023/08/24 08:33:38;;;;;;;6.30;5.70;;;38.60;99.90;;;;;;5026112;28;20225;-64
2023/08/24 08:36:06;;;;;;;6.97;5.78;;;37.30;99.90;;;;;;5044110;28;20708;-63
2023/08/24 08:38:33;;;;;;;6.43;5.35;;;39.00;99.90;;;;;;5025320;28;20188;-63
2023/08/24 08:41:04;;;;;;;9.77;5.97;;;39.90;99.90;;;;;;5043639;28;20214;-63
2023/08/24 08:43:31;;;;;;;6.57;5.90;;;39.10;99.90;;;;;;5041645;28;20203;-63
2023/08/24 08:46:00;;;;;;;7.82;6.15;;;39.30;99.90;;;;;;5025828;28;20223;-63
2023/08/24 08:48:30;;;;;;;7.18;6.47;;;39.60;99.90;;;;;;5044793;28;20198;-63
2023/08/24 08:50:59;;;;;;;9.23;6.03;;;40.40;99.90;;;;;;5041145;28;20549;-60
2023/08/24 08:53:26;;;;;;;6.68;5.80;;;36.20;99.90;;;;;;5027406;28;20211;-63
2023/08/24 08:55:57;;;;;;;7.50;5.30;;;38.20;99.90;;;;;;5026519;28;20207;-63
2023/08/24 08:58:27;;;;;;;6.47;5.68;;;39.10;99.90;;;;;;5045335;28;20666;-66
2023/08/24 09:00:54;;;;;;;7.25;5.78;;;39.70;99.90;;;;;;5041198;28;20202;-61
2023/08/24 09:03:21;;;;;;;7.20;5.30;;;40.00;99.90;;;;;;5043031;28;20215;-63
2023/08/24 09:05:48;;;;;;;6.28;5.28;;;38.60;99.90;;;;;;5026371;28;20239;-63
2023/08/24 09:08:20;;;;;;;6.78;4.75;;;39.40;99.90;;;;;;5042216;28;20187;-64
2023/08/24 09:10:47;;;;;;;5.97;4.90;;;41.30;99.90;;;;;;5045322;28;20202;-62
2023/08/24 09:13:14;;;;;;;5.28;4.82;;;40.70;99.90;;;;;;5015762;28;20554;-62
2023/08/24 09:15:41;;;;;;;5.80;5.20;;;41.20;99.90;;;;;;5026582;28;20656;-64
2023/08/24 09:18:08;;;;;;;5.45;4.95;;;37.40;99.90;;;;;;5029187;28;20190;-62
2023/08/24 09:20:36;;;;;;;6.88;5.35;;;37.30;99.90;;;;;;5019778;28;20192;-61
2023/08/24 09:23:03;;;;;;;6.47;4.85;;;39.60;99.90;;;;;;5021381;28;20249;-62
2023/08/24 09:25:30;;;;;;;5.15;4.72;;;40.70;99.90;;;;;;5032333;28;20941;-62
2023/08/24 09:28:05;;;;;;;5.25;4.75;;;41.00;99.90;;;;;;5033343;28;20190;-61
2023/08/24 09:30:35;;;;;;;6.05;5.28;;;42.00;99.90;;;;;;5016401;28;20552;-62
2023/08/24 09:33:13;;;;;;;4.70;4.22;;;41.70;99.90;;;;;;5050738;28;20194;-62
2023/08/24 09:35:40;;;;;;;4.88;4.38;;;40.70;99.90;;;;;;5050852;28;20195;-61
2023/08/24 09:38:22;;;;;;;6.75;4.50;;;41.00;99.90;;;;;;5033115;28;20694;-61
2023/08/24 09:40:54;;;;;;;4.22;3.92;;;41.30;99.90;;;;;;5050540;28;20274;-61
2023/08/24 09:43:23;;;;;;;5.78;4.45;;;41.70;99.90;;;;;;5050806;28;20241;-60
2023/08/24 09:45:54;;;;;;;4.78;4.38;;;42.60;99.90;;;;;;5050241;28;20742;-62
2023/08/24 09:48:22;;;;;;;4.70;4.30;;;41.50;99.90;;;;;;5049465;28;20195;-62
2023/08/24 09:50:52;;;;;;;4.70;4.30;;;40.70;99.90;;;;;;5032667;28;20252;-62
2023/08/24 09:53:21;;;;;;;5.00;4.50;;;39.60;99.90;;;;;;5032886;28;20693;-62
2023/08/24 09:55:59;;;;;;;7.28;4.28;;;39.10;99.90;;;;;;5037002;28;20191;-60
2023/08/24 09:58:29;;;;;;;4.20;3.80;;;39.90;99.90;;;;;;5052463;28;20195;-65
2023/08/24 10:00:57;;;;;;;4.70;4.10;;;40.60;99.90;;;;;;5031744;28;20595;-63
2023/08/24 10:03:28;;;;;;;8.98;4.43;;;40.10;99.90;;;;;;5050325;28;20225;-68
2023/08/24 10:06:00;;;;;;;6.88;4.80;;;38.40;99.90;;;;;;5049763;28;20246;-64
2023/08/24 10:08:37;;;;;;;9.40;3.92;;;38.10;99.90;;;;;;5049254;28;20209;-64
2023/08/24 10:11:06;;;;;;;5.07;4.00;;;38.00;99.90;;;;;;5050411;28;20187;-64
2023/08/24 10:13:43;;;;;;;5.18;4.40;;;37.80;99.90;;;;;;5045554;28;20237;-64
2023/08/24 10:16:13;;;;;;;6.20;4.47;;;37.40;99.90;;;;;;5021981;28;20434;-63
2023/08/24 10:18:40;;;;;;;8.75;4.53;;;37.00;99.90;;;;;;5042752;28;20187;-68
2023/08/24 10:21:08;;;;;;;7.80;4.40;;;36.50;99.90;;;;;;5015335;28;20221;-69
2023/08/24 10:23:37;;;;;;;5.78;4.57;;;37.30;99.90;;;;;;5018615;28;20234;-69
2023/08/24 10:26:06;;;;;;;8.45;5.22;;;37.80;99.90;;;;;;5049880;28;20226;-69
2023/08/24 10:28:35;;;;;;;7.10;3.92;;;37.80;99.90;;;;;;5029055;28;20557;-68
2023/08/24 10:31:02;;;;;;;4.95;4.40;;;37.50;99.90;;;;;;5020453;28;20192;-68
2023/08/24 10:33:31;;;;;;;4.75;3.65;;;38.00;99.90;;;;;;5030699;28;20198;-69
2023/08/24 10:35:58;;;;;;;6.25;3.78;;;35.80;99.90;;;;;;5021111;28;20195;-68
2023/08/24 10:38:29;;;;;;;4.10;3.80;;;37.20;99.90;;;;;;5022887;28;20256;-68
2023/08/24 10:41:04;;;;;;;6.95;4.57;;;37.90;99.90;;;;;;5010954;28;20654;-69
2023/08/24 10:43:38;;;;;;;4.18;3.78;;;38.70;99.90;;;;;;5022186;28;21819;-67
2023/08/24 10:46:12;;;;;;;4.20;3.80;;;36.90;99.90;;;;;;5027864;28;20211;-68
2023/08/24 10:48:42;;;;;;;4.53;4.10;;;36.90;99.90;;;;;;5041949;28;20183;-68
2023/08/24 10:51:21;;;;;;;5.22;4.28;;;36.50;99.90;;;;;;5033204;28;20191;-68
2023/08/24 10:54:03;;;;;;;6.55;3.83;;;37.40;99.90;;;;;;5025026;28;20260;-68
2023/08/24 10:56:34;;;;;;;5.00;4.50;;;38.70;99.90;;;;;;5020283;28;20199;-68
2023/08/24 10:59:18;;;;;;;4.68;4.25;;;37.70;99.90;;;;;;5038188;28;20652;-68
2023/08/24 11:01:55;;;;;;;4.50;3.95;;;36.90;99.90;;;;;;5024151;28;20562;-68
2023/08/24 11:04:22;;;;;;;4.93;4.18;;;37.50;99.90;;;;;;5038073;28;20634;-68
2023/08/24 11:07:02;;;;;;;6.10;4.10;;;37.80;99.90;;;;;;5023428;28;20207;-68
2023/08/24 11:09:47;;;;;;;4.28;3.88;;;38.10;99.90;;;;;;5019827;28;20191;-67
2023/08/24 11:12:14;;;;;;;5.63;4.38;;;37.20;99.90;;;;;;5039869;28;20240;-67
2023/08/24 11:14:54;;;;;;;5.20;4.40;;;36.40;99.90;;;;;;5005204;28;20192;-63
2023/08/24 11:17:22;;;;;;;4.22;3.83;;;35.30;99.90;;;;;;5015116;28;20325;-65
2023/08/24 11:19:54;;;;;;;4.22;3.83;;;35.30;99.90;;;;;;5040599;28;20199;-63
2023/08/24 11:22:21;;;;;;;7.10;4.50;;;35.80;99.90;;;;;;5011150;28;20203;-63
2023/08/24 11:24:48;;;;;;;4.45;4.03;;;35.80;99.90;;;;;;5034786;28;20223;-64
2023/08/24 11:27:16;;;;;;;4.55;4.18;;;33.50;99.90;;;;;;5022337;28;20222;-63
2023/08/24 11:29:43;;;;;;;5.47;4.60;;;31.80;99.90;;;;;;5023036;28;20241;-63
2023/08/24 11:32:10;;;;;;;4.30;3.97;;;31.90;99.90;;;;;;5026177;28;20231;-62
2023/08/24 11:34:38;;;;;;;4.75;4.35;;;32.90;99.90;;;;;;5038062;28;20187;-69
2023/08/24 11:37:05;;;;;;;4.20;3.90;;;33.80;99.90;;;;;;5023906;28;20191;-67
2023/08/24 11:39:32;;;;;;;5.38;4.65;;;33.30;99.90;;;;;;5023094;28;20242;-67
2023/08/24 11:42:02;;;;;;;4.72;3.72;;;32.70;99.90;;;;;;5021287;28;20203;-69
2023/08/24 11:44:30;;;;;;;6.28;4.20;;;33.30;99.90;;;;;;5022988;28;20626;-68
2023/08/24 11:46:58;;;;;;;5.38;4.03;;;32.20;99.90;;;;;;5020017;28;20211;-67
2023/08/24 11:49:26;;;;;;;7.30;4.20;;;32.50;99.90;;;;;;5037682;28;20198;-67
2023/08/24 11:51:54;;;;;;;5.22;4.00;;;33.00;99.90;;;;;;5026071;28;20192;-68
2023/08/24 11:54:21;;;;;;;4.18;3.78;;;31.80;99.90;;;;;;5024029;28;20203;-67
2023/08/24 11:56:48;;;;;;;4.60;4.05;;;32.00;99.90;;;;;;5023790;28;20302;-69
2023/08/24 11:59:16;;;;;;;5.38;4.47;;;32.00;99.90;;;;;;5016199;28;20203;-68
2023/08/24 12:01:46;;;;;;;5.20;3.90;;;31.00;99.90;;;;;;5006328;28;20299;-67
2023/08/24 12:04:13;;;;;;;4.45;4.07;;;31.70;99.90;;;;;;5039674;28;20247;-68
2023/08/24 12:06:40;;;;;;;4.55;3.92;;;31.10;99.90;;;;;;5009992;28;20215;-68
2023/08/24 12:09:07;;;;;;;4.82;4.32;;;31.90;99.90;;;;;;5037686;28;20211;-68
2023/08/24 12:11:38;;;;;;;5.15;4.38;;;30.70;99.90;;;;;;5007181;28;20667;-68
2023/08/24 12:14:09;;;;;;;6.25;4.13;;;31.00;99.90;;;;;;5019769;28;20283;-68
2023/08/24 12:16:37;;;;;;;4.40;4.00;;;31.20;99.90;;;;;;5021330;28;21267;-68
2023/08/24 12:19:07;;;;;;;7.60;4.38;;;30.00;99.90;;;;;;5034809;28;20192;-70
2023/08/24 12:21:34;;;;;;;12.85;4.15;;;30.50;99.90;;;;;;5046246;28;20647;-68
2023/08/24 12:24:09;;;;;;;4.82;4.35;;;31.20;99.90;;;;;;5027206;28;20192;-68
2023/08/24 12:26:36;;;;;;;4.90;4.22;;;30.50;99.90;;;;;;5047676;28;20210;-68
2023/08/24 12:29:06;;;;;;;5.30;4.00;;;30.40;99.90;;;;;;5027986;28;20203;-68
2023/08/24 12:31:35;;;;;;;5.55;4.15;;;30.50;99.90;;;;;;5043961;28;20677;-68
2023/08/24 12:34:06;;;;;;;4.57;4.15;;;31.10;99.90;;;;;;5027062;28;20241;-68
2023/08/24 12:36:35;;;;;;;4.13;3.70;;;31.10;99.90;;;;;;5044246;28;20705;-68
2023/08/24 12:39:04;;;;;;;5.82;3.80;;;30.50;99.90;;;;;;5010848;28;20671;-68
2023/08/24 12:41:34;;;;;;;7.90;4.30;;;30.70;99.90;;;;;;5045293;28;20210;-68
2023/08/24 12:44:05;;;;;;;4.13;3.72;;;31.00;99.90;;;;;;5028261;28;21058;-68
2023/08/24 12:46:35;;;;;;;4.65;3.78;;;30.30;99.90;;;;;;5029710;28;20226;-68
2023/08/24 12:49:03;;;;;;;5.38;4.50;;;30.30;99.90;;;;;;5025909;28;20184;-68
2023/08/24 12:51:30;;;;;;;4.45;3.70;;;31.00;99.90;;;;;;5030306;28;20200;-68
2023/08/24 12:53:56;;;;;;;8.15;3.95;;;30.80;99.90;;;;;;5027319;28;20211;-68